KAVL/AVL METAR and TAF weather

Enter ICAO airport designator
Station Type Date Time Source
KAVL METAR 2019/08/21 01:54 UTC NOAA

KAVL 210154Z 23004KT 10SM FEW022 22/19 A3018 RMK AO2 SLP194 T02220189


Station Type Date Time Source
KAVL Decoded METAR 2019/08/21 01:54 UTC NOAA

Station name not available
Aug 20, 2019 - 09:54 PM EDT / 2019.08.21 0154 UTC
Wind: from the SW (230 degrees) at 5 MPH (4 KT):0
Visibility: 10 mile(s):0
Sky conditions: mostly clear
Temperature: 72.0 F (22.2 C)
Dew Point: 66.0 F (18.9 C)
Relative Humidity: 81%
Pressure (altimeter): 30.18 in. Hg (1022 hPa)
ob: KAVL 210154Z 23004KT 10SM FEW022 22/19 A3018 RMK AO2 SLP194 T02220189
cycle: 2

Station Type Date Time Source
KAVL TAF 2019/08/20 18:42 UTC NOAA

TAF KAVL 201739Z 2018/2118 20003KT P6SM VCTS BKN070CB BKN100
TEMPO 2021/2024 4SM TSRA OVC025CB
FM210000 VRB02KT P6SM VCSH SCT025 BKN100
FM210300 VRB02KT 5SM BR SCT040 BKN100
FM210700 31003KT 2SM BR BKN008
FM211300 31003KT P6SM VCSH SCT100

Example: see airport list